sensor_id;sensor_type;location;lat;lon;timestamp;P1;durP1;ratioP1;P2;durP2;ratioP2
72601;SDS011;60644;55.858;37.390;2022-08-01T00:00:44;8.05;;;3.47;;
72601;SDS011;60644;55.858;37.390;2022-08-01T00:03:10;8.10;;;3.50;;
72601;SDS011;60644;55.858;37.390;2022-08-01T00:05:36;9.33;;;3.77;;
72601;SDS011;60644;55.858;37.390;2022-08-01T00:08:02;11.57;;;4.18;;
72601;SDS011;60644;55.858;37.390;2022-08-01T00:10:28;9.98;;;3.40;;
72601;SDS011;60644;55.858;37.390;2022-08-01T00:12:54;8.18;;;3.17;;
72601;SDS011;60644;55.858;37.390;2022-08-01T00:15:20;11.63;;;3.37;;
72601;SDS011;60644;55.858;37.390;2022-08-01T00:17:46;9.73;;;3.75;;
72601;SDS011;60644;55.858;37.390;2022-08-01T00:20:13;10.10;;;3.97;;
72601;SDS011;60644;55.858;37.390;2022-08-01T00:22:40;9.50;;;3.55;;
72601;SDS011;60644;55.858;37.390;2022-08-01T00:25:06;10.53;;;3.50;;
72601;SDS011;60644;55.858;37.390;2022-08-01T00:27:32;9.77;;;4.40;;
72601;SDS011;60644;55.858;37.390;2022-08-01T00:29:58;11.25;;;4.55;;
72601;SDS011;60644;55.858;37.390;2022-08-01T00:32:24;9.98;;;4.22;;
72601;SDS011;60644;55.858;37.390;2022-08-01T00:34:51;12.82;;;4.65;;
72601;SDS011;60644;55.858;37.390;2022-08-01T00:37:16;10.13;;;4.43;;
72601;SDS011;60644;55.858;37.390;2022-08-01T00:39:42;8.20;;;3.75;;
72601;SDS011;60644;55.858;37.390;2022-08-01T00:42:09;10.90;;;4.03;;
72601;SDS011;60644;55.858;37.390;2022-08-01T00:44:37;11.60;;;4.13;;
72601;SDS011;60644;55.858;37.390;2022-08-01T00:47:04;7.47;;;3.97;;
72601;SDS011;60644;55.858;37.390;2022-08-01T00:49:31;8.60;;;3.83;;
72601;SDS011;60644;55.858;37.390;2022-08-01T00:51:57;8.65;;;3.45;;
72601;SDS011;60644;55.858;37.390;2022-08-01T00:54:24;8.68;;;3.55;;
72601;SDS011;60644;55.858;37.390;2022-08-01T00:56:52;8.70;;;3.78;;
72601;SDS011;60644;55.858;37.390;2022-08-01T00:59:18;11.23;;;3.77;;
72601;SDS011;60644;55.858;37.390;2022-08-01T01:01:47;8.82;;;3.03;;
72601;SDS011;60644;55.858;37.390;2022-08-01T01:04:13;9.40;;;2.63;;
72601;SDS011;60644;55.858;37.390;2022-08-01T01:14:39;11.35;;;2.90;;
72601;SDS011;60644;55.858;37.390;2022-08-01T01:17:13;8.93;;;3.20;;
72601;SDS011;60644;55.858;37.390;2022-08-01T01:19:50;12.93;;;3.50;;
72601;SDS011;60644;55.858;37.390;2022-08-01T01:22:24;9.60;;;3.50;;
72601;SDS011;60644;55.858;37.390;2022-08-01T01:25:14;10.87;;;3.70;;
72601;SDS011;60644;55.858;37.390;2022-08-01T01:30:15;9.32;;;3.85;;
72601;SDS011;60644;55.858;37.390;2022-08-01T01:32:43;10.70;;;3.88;;
72601;SDS011;60644;55.858;37.390;2022-08-01T01:35:14;8.00;;;3.58;;
72601;SDS011;60644;55.858;37.390;2022-08-01T01:37:42;10.43;;;3.30;;
72601;SDS011;60644;55.858;37.390;2022-08-01T01:40:12;12.30;;;3.95;;
72601;SDS011;60644;55.858;37.390;2022-08-01T01:42:39;8.30;;;3.13;;
72601;SDS011;60644;55.858;37.390;2022-08-01T01:45:07;9.75;;;3.65;;
72601;SDS011;60644;55.858;37.390;2022-08-01T01:47:34;9.65;;;3.97;;
72601;SDS011;60644;55.858;37.390;2022-08-01T01:50:03;7.80;;;3.17;;
72601;SDS011;60644;55.858;37.390;2022-08-01T01:52:32;9.32;;;2.78;;
72601;SDS011;60644;55.858;37.390;2022-08-01T01:54:59;9.68;;;3.20;;
72601;SDS011;60644;55.858;37.390;2022-08-01T01:57:28;9.75;;;3.38;;
72601;SDS011;60644;55.858;37.390;2022-08-01T01:59:56;8.55;;;3.55;;
72601;SDS011;60644;55.858;37.390;2022-08-01T02:02:24;9.43;;;3.80;;
72601;SDS011;60644;55.858;37.390;2022-08-01T02:04:51;9.23;;;3.63;;
72601;SDS011;60644;55.858;37.390;2022-08-01T02:07:19;7.60;;;3.75;;
72601;SDS011;60644;55.858;37.390;2022-08-01T02:09:47;7.97;;;3.58;;
72601;SDS011;60644;55.858;37.390;2022-08-01T02:12:14;10.85;;;3.58;;
72601;SDS011;60644;55.858;37.390;2022-08-01T02:15:03;14.77;;;3.87;;
72601;SDS011;60644;55.858;37.390;2022-08-01T02:17:29;9.90;;;3.55;;
72601;SDS011;60644;55.858;37.390;2022-08-01T02:19:56;7.93;;;3.42;;
72601;SDS011;60644;55.858;37.390;2022-08-01T02:22:31;7.63;;;3.50;;
72601;SDS011;60644;55.858;37.390;2022-08-01T02:27:37;10.57;;;3.77;;
72601;SDS011;60644;55.858;37.390;2022-08-01T02:30:33;8.15;;;3.40;;
72601;SDS011;60644;55.858;37.390;2022-08-01T02:33:02;11.45;;;3.45;;
72601;SDS011;60644;55.858;37.390;2022-08-01T02:35:32;10.25;;;3.90;;
72601;SDS011;60644;55.858;37.390;2022-08-01T02:38:01;9.95;;;3.78;;
72601;SDS011;60644;55.858;37.390;2022-08-01T02:40:29;10.30;;;3.50;;
72601;SDS011;60644;55.858;37.390;2022-08-01T02:42:59;8.63;;;3.80;;
72601;SDS011;60644;55.858;37.390;2022-08-01T02:45:27;13.00;;;3.95;;
72601;SDS011;60644;55.858;37.390;2022-08-01T02:47:57;10.52;;;3.65;;
72601;SDS011;60644;55.858;37.390;2022-08-01T02:50:27;11.40;;;3.72;;
72601;SDS011;60644;55.858;37.390;2022-08-01T02:52:55;9.37;;;4.20;;
72601;SDS011;60644;55.858;37.390;2022-08-01T02:55:23;8.13;;;3.72;;
72601;SDS011;60644;55.858;37.390;2022-08-01T02:57:50;11.20;;;3.90;;
72601;SDS011;60644;55.858;37.390;2022-08-01T03:00:19;10.60;;;4.07;;
72601;SDS011;60644;55.858;37.390;2022-08-01T03:02:45;9.98;;;4.00;;
72601;SDS011;60644;55.858;37.390;2022-08-01T03:05:13;12.33;;;4.73;;
72601;SDS011;60644;55.858;37.390;2022-08-01T03:07:40;11.52;;;4.30;;
72601;SDS011;60644;55.858;37.390;2022-08-01T03:10:07;8.38;;;3.92;;
72601;SDS011;60644;55.858;37.390;2022-08-01T03:12:36;10.43;;;4.07;;
72601;SDS011;60644;55.858;37.390;2022-08-01T03:15:03;11.00;;;3.72;;
72601;SDS011;60644;55.858;37.390;2022-08-01T03:17:31;9.30;;;3.73;;
72601;SDS011;60644;55.858;37.390;2022-08-01T03:19:58;7.82;;;3.33;;
72601;SDS011;60644;55.858;37.390;2022-08-01T03:22:28;10.93;;;3.92;;
72601;SDS011;60644;55.858;37.390;2022-08-01T03:24:55;10.15;;;3.72;;
72601;SDS011;60644;55.858;37.390;2022-08-01T03:27:24;8.20;;;3.28;;
72601;SDS011;60644;55.858;37.390;2022-08-01T03:29:51;15.83;;;3.80;;
72601;SDS011;60644;55.858;37.390;2022-08-01T03:32:19;10.13;;;3.47;;
72601;SDS011;60644;55.858;37.390;2022-08-01T03:34:46;7.15;;;3.10;;
72601;SDS011;60644;55.858;37.390;2022-08-01T03:37:34;10.07;;;3.83;;
72601;SDS011;60644;55.858;37.390;2022-08-01T03:40:10;9.23;;;3.78;;
72601;SDS011;60644;55.858;37.390;2022-08-01T03:42:50;9.83;;;3.20;;
72601;SDS011;60644;55.858;37.390;2022-08-01T03:45:25;9.55;;;3.72;;
72601;SDS011;60644;55.858;37.390;2022-08-01T03:47:59;7.00;;;2.95;;
72601;SDS011;60644;55.858;37.390;2022-08-01T03:50:27;6.40;;;2.85;;
72601;SDS011;60644;55.858;37.390;2022-08-01T03:52:57;9.02;;;3.80;;
72601;SDS011;60644;55.858;37.390;2022-08-01T03:55:24;8.47;;;3.67;;
72601;SDS011;60644;55.858;37.390;2022-08-01T03:57:51;6.70;;;3.45;;
72601;SDS011;60644;55.858;37.390;2022-08-01T04:00:18;8.18;;;3.00;;
72601;SDS011;60644;55.858;37.390;2022-08-01T04:02:45;8.90;;;2.55;;
72601;SDS011;60644;55.858;37.390;2022-08-01T04:05:13;6.95;;;2.80;;
72601;SDS011;60644;55.858;37.390;2022-08-01T04:07:40;6.97;;;2.20;;
72601;SDS011;60644;55.858;37.390;2022-08-01T04:10:11;7.35;;;2.28;;
72601;SDS011;60644;55.858;37.390;2022-08-01T04:12:38;6.20;;;2.33;;
72601;SDS011;60644;55.858;37.390;2022-08-01T04:15:04;8.52;;;2.30;;
72601;SDS011;60644;55.858;37.390;2022-08-01T04:17:31;7.25;;;2.30;;
72601;SDS011;60644;55.858;37.390;2022-08-01T04:19:57;5.43;;;1.97;;
72601;SDS011;60644;55.858;37.390;2022-08-01T04:22:23;7.57;;;2.33;;
72601;SDS011;60644;55.858;37.390;2022-08-01T04:24:50;5.30;;;1.92;;
72601;SDS011;60644;55.858;37.390;2022-08-01T04:27:22;7.25;;;2.20;;
72601;SDS011;60644;55.858;37.390;2022-08-01T04:29:51;8.23;;;2.70;;
72601;SDS011;60644;55.858;37.390;2022-08-01T04:32:21;6.45;;;1.95;;
72601;SDS011;60644;55.858;37.390;2022-08-01T04:34:47;6.88;;;2.00;;
72601;SDS011;60644;55.858;37.390;2022-08-01T04:37:15;6.43;;;1.90;;
72601;SDS011;60644;55.858;37.390;2022-08-01T04:39:44;5.35;;;1.80;;
72601;SDS011;60644;55.858;37.390;2022-08-01T04:42:12;7.23;;;2.20;;
72601;SDS011;60644;55.858;37.390;2022-08-01T04:44:40;7.03;;;2.03;;
72601;SDS011;60644;55.858;37.390;2022-08-01T04:47:07;8.00;;;2.70;;
72601;SDS011;60644;55.858;37.390;2022-08-01T04:49:34;6.78;;;2.72;;
72601;SDS011;60644;55.858;37.390;2022-08-01T04:52:01;6.18;;;2.28;;
72601;SDS011;60644;55.858;37.390;2022-08-01T04:54:27;7.07;;;2.43;;
72601;SDS011;60644;55.858;37.390;2022-08-01T04:56:54;6.40;;;2.08;;
72601;SDS011;60644;55.858;37.390;2022-08-01T04:59:25;7.32;;;3.00;;
72601;SDS011;60644;55.858;37.390;2022-08-01T05:02:21;5.72;;;2.65;;
72601;SDS011;60644;55.858;37.390;2022-08-01T05:04:47;8.17;;;2.80;;
72601;SDS011;60644;55.858;37.390;2022-08-01T05:07:13;6.28;;;2.70;;
72601;SDS011;60644;55.858;37.390;2022-08-01T05:09:39;6.95;;;2.78;;
72601;SDS011;60644;55.858;37.390;2022-08-01T05:12:11;7.45;;;3.10;;
72601;SDS011;60644;55.858;37.390;2022-08-01T05:14:37;7.47;;;2.60;;
72601;SDS011;60644;55.858;37.390;2022-08-01T05:17:04;8.10;;;2.70;;
72601;SDS011;60644;55.858;37.390;2022-08-01T05:19:32;6.68;;;3.28;;
72601;SDS011;60644;55.858;37.390;2022-08-01T05:21:59;9.52;;;3.25;;
72601;SDS011;60644;55.858;37.390;2022-08-01T05:24:33;7.45;;;2.80;;
72601;SDS011;60644;55.858;37.390;2022-08-01T05:27:01;9.43;;;2.60;;
72601;SDS011;60644;55.858;37.390;2022-08-01T05:29:27;7.93;;;2.10;;
72601;SDS011;60644;55.858;37.390;2022-08-01T05:31:53;5.68;;;2.40;;
72601;SDS011;60644;55.858;37.390;2022-08-01T05:34:19;5.68;;;2.22;;
72601;SDS011;60644;55.858;37.390;2022-08-01T05:36:46;8.35;;;2.50;;
72601;SDS011;60644;55.858;37.390;2022-08-01T05:39:12;7.83;;;2.33;;
72601;SDS011;60644;55.858;37.390;2022-08-01T05:41:39;7.72;;;2.55;;
72601;SDS011;60644;55.858;37.390;2022-08-01T05:44:05;7.32;;;2.80;;
72601;SDS011;60644;55.858;37.390;2022-08-01T05:46:32;6.30;;;2.38;;
72601;SDS011;60644;55.858;37.390;2022-08-01T05:48:59;7.53;;;2.38;;
72601;SDS011;60644;55.858;37.390;2022-08-01T05:51:25;4.97;;;2.17;;
72601;SDS011;60644;55.858;37.390;2022-08-01T05:53:52;10.35;;;2.67;;
72601;SDS011;60644;55.858;37.390;2022-08-01T05:56:18;9.27;;;2.50;;
72601;SDS011;60644;55.858;37.390;2022-08-01T05:58:45;5.95;;;2.30;;
72601;SDS011;60644;55.858;37.390;2022-08-01T06:01:11;5.72;;;2.20;;
72601;SDS011;60644;55.858;37.390;2022-08-01T06:03:36;6.47;;;2.33;;
72601;SDS011;60644;55.858;37.390;2022-08-01T06:06:03;8.05;;;2.17;;
72601;SDS011;60644;55.858;37.390;2022-08-01T06:08:29;5.90;;;2.00;;
72601;SDS011;60644;55.858;37.390;2022-08-01T06:10:56;7.07;;;1.90;;
72601;SDS011;60644;55.858;37.390;2022-08-01T06:13:22;8.47;;;2.07;;
72601;SDS011;60644;55.858;37.390;2022-08-01T06:15:48;9.52;;;2.20;;
72601;SDS011;60644;55.858;37.390;2022-08-01T06:18:15;8.07;;;1.95;;
72601;SDS011;60644;55.858;37.390;2022-08-01T06:20:41;7.85;;;2.00;;
72601;SDS011;60644;55.858;37.390;2022-08-01T06:23:08;7.47;;;1.80;;
72601;SDS011;60644;55.858;37.390;2022-08-01T06:25:34;7.40;;;2.13;;
72601;SDS011;60644;55.858;37.390;2022-08-01T06:28:00;5.95;;;1.90;;
72601;SDS011;60644;55.858;37.390;2022-08-01T06:30:27;6.63;;;1.70;;
72601;SDS011;60644;55.858;37.390;2022-08-01T06:32:53;6.47;;;1.88;;
72601;SDS011;60644;55.858;37.390;2022-08-01T06:35:21;5.47;;;1.73;;
72601;SDS011;60644;55.858;37.390;2022-08-01T06:37:47;4.77;;;0.97;;
72601;SDS011;60644;55.858;37.390;2022-08-01T06:40:14;5.05;;;1.20;;
72601;SDS011;60644;55.858;37.390;2022-08-01T06:42:40;6.00;;;1.40;;
72601;SDS011;60644;55.858;37.390;2022-08-01T06:45:10;7.78;;;1.83;;
72601;SDS011;60644;55.858;37.390;2022-08-01T06:47:37;8.90;;;1.90;;
72601;SDS011;60644;55.858;37.390;2022-08-01T06:50:04;6.43;;;1.30;;
72601;SDS011;60644;55.858;37.390;2022-08-01T06:52:31;4.97;;;1.40;;
72601;SDS011;60644;55.858;37.390;2022-08-01T06:54:57;4.72;;;1.38;;
72601;SDS011;60644;55.858;37.390;2022-08-01T06:57:23;6.45;;;1.20;;
72601;SDS011;60644;55.858;37.390;2022-08-01T06:59:49;6.13;;;1.60;;
72601;SDS011;60644;55.858;37.390;2022-08-01T07:02:16;6.10;;;1.67;;
72601;SDS011;60644;55.858;37.390;2022-08-01T07:04:42;8.35;;;2.20;;
72601;SDS011;60644;55.858;37.390;2022-08-01T07:07:08;4.78;;;1.20;;
72601;SDS011;60644;55.858;37.390;2022-08-01T07:09:34;4.83;;;1.60;;
72601;SDS011;60644;55.858;37.390;2022-08-01T07:12:00;5.68;;;1.70;;
72601;SDS011;60644;55.858;37.390;2022-08-01T07:14:26;6.73;;;2.13;;
72601;SDS011;60644;55.858;37.390;2022-08-01T07:16:52;6.13;;;1.90;;
72601;SDS011;60644;55.858;37.390;2022-08-01T07:19:18;5.28;;;1.63;;
72601;SDS011;60644;55.858;37.390;2022-08-01T07:21:44;6.20;;;1.50;;
72601;SDS011;60644;55.858;37.390;2022-08-01T07:24:10;3.85;;;1.30;;
72601;SDS011;60644;55.858;37.390;2022-08-01T07:26:41;6.73;;;1.63;;
72601;SDS011;60644;55.858;37.390;2022-08-01T07:29:08;7.68;;;2.00;;
72601;SDS011;60644;55.858;37.390;2022-08-01T07:31:34;5.18;;;1.95;;
72601;SDS011;60644;55.858;37.390;2022-08-01T07:34:00;5.40;;;2.20;;
72601;SDS011;60644;55.858;37.390;2022-08-01T07:36:26;5.30;;;2.17;;
72601;SDS011;60644;55.858;37.390;2022-08-01T07:38:52;6.28;;;1.98;;
72601;SDS011;60644;55.858;37.390;2022-08-01T07:41:18;8.82;;;2.33;;
72601;SDS011;60644;55.858;37.390;2022-08-01T07:43:44;6.68;;;1.90;;
72601;SDS011;60644;55.858;37.390;2022-08-01T07:46:10;8.07;;;2.43;;
72601;SDS011;60644;55.858;37.390;2022-08-01T07:48:36;8.50;;;1.93;;
72601;SDS011;60644;55.858;37.390;2022-08-01T07:51:02;6.03;;;2.10;;
72601;SDS011;60644;55.858;37.390;2022-08-01T07:53:27;6.00;;;1.88;;
72601;SDS011;60644;55.858;37.390;2022-08-01T07:55:54;6.97;;;1.87;;
72601;SDS011;60644;55.858;37.390;2022-08-01T07:58:20;6.90;;;1.98;;
72601;SDS011;60644;55.858;37.390;2022-08-01T08:00:46;6.03;;;1.90;;
72601;SDS011;60644;55.858;37.390;2022-08-01T08:03:12;5.80;;;1.80;;
72601;SDS011;60644;55.858;37.390;2022-08-01T08:05:38;6.20;;;1.90;;
72601;SDS011;60644;55.858;37.390;2022-08-01T08:08:04;5.70;;;1.80;;
72601;SDS011;60644;55.858;37.390;2022-08-01T08:10:32;7.43;;;1.88;;
72601;SDS011;60644;55.858;37.390;2022-08-01T08:12:58;7.17;;;1.87;;
72601;SDS011;60644;55.858;37.390;2022-08-01T08:15:24;4.85;;;1.70;;
72601;SDS011;60644;55.858;37.390;2022-08-01T08:17:50;5.90;;;1.90;;
72601;SDS011;60644;55.858;37.390;2022-08-01T08:20:16;9.52;;;1.73;;
72601;SDS011;60644;55.858;37.390;2022-08-01T08:22:42;5.27;;;2.10;;
72601;SDS011;60644;55.858;37.390;2022-08-01T08:25:08;7.30;;;2.10;;
72601;SDS011;60644;55.858;37.390;2022-08-01T08:27:35;6.10;;;2.00;;
72601;SDS011;60644;55.858;37.390;2022-08-01T08:30:02;5.90;;;2.05;;
72601;SDS011;60644;55.858;37.390;2022-08-01T08:32:32;6.90;;;2.17;;
72601;SDS011;60644;55.858;37.390;2022-08-01T08:34:59;6.80;;;2.20;;
72601;SDS011;60644;55.858;37.390;2022-08-01T08:37:25;6.88;;;2.28;;
72601;SDS011;60644;55.858;37.390;2022-08-01T08:39:51;5.32;;;1.98;;
72601;SDS011;60644;55.858;37.390;2022-08-01T08:42:17;6.78;;;2.30;;
72601;SDS011;60644;55.858;37.390;2022-08-01T08:44:43;6.43;;;2.13;;
72601;SDS011;60644;55.858;37.390;2022-08-01T08:47:13;6.13;;;2.03;;
72601;SDS011;60644;55.858;37.390;2022-08-01T08:49:42;4.80;;;1.92;;
72601;SDS011;60644;55.858;37.390;2022-08-01T08:52:09;6.90;;;2.20;;
72601;SDS011;60644;55.858;37.390;2022-08-01T08:54:37;6.57;;;1.90;;
72601;SDS011;60644;55.858;37.390;2022-08-01T08:57:05;5.75;;;1.80;;
72601;SDS011;60644;55.858;37.390;2022-08-01T08:59:31;4.30;;;1.83;;
72601;SDS011;60644;55.858;37.390;2022-08-01T09:01:57;42.20;;;4.15;;
72601;SDS011;60644;55.858;37.390;2022-08-01T09:04:24;6.25;;;1.90;;
72601;SDS011;60644;55.858;37.390;2022-08-01T09:06:51;4.67;;;1.50;;
72601;SDS011;60644;55.858;37.390;2022-08-01T09:09:18;4.88;;;1.27;;
72601;SDS011;60644;55.858;37.390;2022-08-01T09:11:44;4.07;;;1.30;;
72601;SDS011;60644;55.858;37.390;2022-08-01T09:14:11;4.40;;;1.27;;
72601;SDS011;60644;55.858;37.390;2022-08-01T09:16:40;4.43;;;1.60;;
72601;SDS011;60644;55.858;37.390;2022-08-01T09:22:00;8.18;;;2.33;;
72601;SDS011;60644;55.858;37.390;2022-08-01T09:24:29;10.20;;;1.85;;
72601;SDS011;60644;55.858;37.390;2022-08-01T09:26:56;8.48;;;2.28;;
72601;SDS011;60644;55.858;37.390;2022-08-01T09:29:24;6.28;;;2.00;;
72601;SDS011;60644;55.858;37.390;2022-08-01T09:31:55;6.53;;;1.97;;
72601;SDS011;60644;55.858;37.390;2022-08-01T09:34:28;5.78;;;2.30;;
72601;SDS011;60644;55.858;37.390;2022-08-01T09:36:56;5.70;;;1.90;;
72601;SDS011;60644;55.858;37.390;2022-08-01T09:39:28;5.55;;;1.73;;
72601;SDS011;60644;55.858;37.390;2022-08-01T09:42:22;4.95;;;2.20;;
72601;SDS011;60644;55.858;37.390;2022-08-01T09:44:50;6.67;;;2.27;;
72601;SDS011;60644;55.858;37.390;2022-08-01T09:47:16;6.45;;;2.33;;
72601;SDS011;60644;55.858;37.390;2022-08-01T09:49:52;6.78;;;2.22;;
72601;SDS011;60644;55.858;37.390;2022-08-01T09:52:21;6.38;;;2.58;;
72601;SDS011;60644;55.858;37.390;2022-08-01T09:54:58;6.25;;;2.10;;
72601;SDS011;60644;55.858;37.390;2022-08-01T09:57:26;8.50;;;2.00;;
72601;SDS011;60644;55.858;37.390;2022-08-01T09:59:55;5.18;;;1.90;;
72601;SDS011;60644;55.858;37.390;2022-08-01T10:02:34;6.20;;;2.10;;
72601;SDS011;60644;55.858;37.390;2022-08-01T10:05:09;6.00;;;2.10;;
72601;SDS011;60644;55.858;37.390;2022-08-01T10:07:36;4.57;;;1.83;;
72601;SDS011;60644;55.858;37.390;2022-08-01T10:10:40;5.20;;;2.17;;
72601;SDS011;60644;55.858;37.390;2022-08-01T10:13:06;7.40;;;2.40;;
72601;SDS011;60644;55.858;37.390;2022-08-01T10:15:34;7.03;;;2.40;;
72601;SDS011;60644;55.858;37.390;2022-08-01T10:18:01;4.97;;;2.22;;
72601;SDS011;60644;55.858;37.390;2022-08-01T10:20:32;6.43;;;2.40;;
72601;SDS011;60644;55.858;37.390;2022-08-01T10:23:00;5.10;;;2.40;;
72601;SDS011;60644;55.858;37.390;2022-08-01T10:25:28;6.45;;;2.20;;
72601;SDS011;60644;55.858;37.390;2022-08-01T10:27:59;6.65;;;2.08;;
72601;SDS011;60644;55.858;37.390;2022-08-01T10:30:26;6.32;;;2.30;;
72601;SDS011;60644;55.858;37.390;2022-08-01T10:32:53;8.85;;;2.50;;
72601;SDS011;60644;55.858;37.390;2022-08-01T10:35:21;4.77;;;2.37;;
72601;SDS011;60644;55.858;37.390;2022-08-01T10:37:47;6.57;;;2.90;;
72601;SDS011;60644;55.858;37.390;2022-08-01T10:40:16;5.95;;;2.83;;
72601;SDS011;60644;55.858;37.390;2022-08-01T10:42:43;5.45;;;2.25;;
72601;SDS011;60644;55.858;37.390;2022-08-01T10:45:11;6.68;;;2.70;;
72601;SDS011;60644;55.858;37.390;2022-08-01T10:47:44;8.17;;;2.43;;
72601;SDS011;60644;55.858;37.390;2022-08-01T10:50:46;5.63;;;2.38;;
72601;SDS011;60644;55.858;37.390;2022-08-01T10:53:18;4.57;;;2.30;;
72601;SDS011;60644;55.858;37.390;2022-08-01T10:55:49;5.22;;;2.30;;
72601;SDS011;60644;55.858;37.390;2022-08-01T10:58:24;6.00;;;2.53;;
72601;SDS011;60644;55.858;37.390;2022-08-01T11:09:15;7.45;;;3.40;;
72601;SDS011;60644;55.858;37.390;2022-08-01T11:12:02;7.30;;;3.40;;
72601;SDS011;60644;55.858;37.390;2022-08-01T11:15:19;7.67;;;3.10;;
72601;SDS011;60644;55.858;37.390;2022-08-01T11:30:44;5.60;;;2.65;;
72601;SDS011;60644;55.858;37.390;2022-08-01T11:33:10;6.90;;;2.70;;
72601;SDS011;60644;55.858;37.390;2022-08-01T11:35:39;7.35;;;3.00;;
72601;SDS011;60644;55.858;37.390;2022-08-01T11:41:22;6.00;;;2.43;;
72601;SDS011;60644;55.858;37.390;2022-08-01T11:44:03;6.03;;;2.47;;
72601;SDS011;60644;55.858;37.390;2022-08-01T11:52:02;7.25;;;2.28;;
72601;SDS011;60644;55.858;37.390;2022-08-01T11:54:40;6.67;;;2.70;;
72601;SDS011;60644;55.858;37.390;2022-08-01T11:57:14;6.38;;;2.75;;
72601;SDS011;60644;55.858;37.390;2022-08-01T11:59:48;8.10;;;2.90;;
72601;SDS011;60644;55.858;37.390;2022-08-01T12:02:26;6.72;;;2.55;;
72601;SDS011;60644;55.858;37.390;2022-08-01T12:07:24;7.23;;;2.77;;
72601;SDS011;60644;55.858;37.390;2022-08-01T12:10:03;7.85;;;3.13;;
72601;SDS011;60644;55.858;37.390;2022-08-01T12:12:32;7.03;;;2.45;;
72601;SDS011;60644;55.858;37.390;2022-08-01T12:15:03;5.53;;;2.50;;
72601;SDS011;60644;55.858;37.390;2022-08-01T12:17:33;6.78;;;2.70;;
72601;SDS011;60644;55.858;37.390;2022-08-01T12:20:11;6.93;;;3.00;;
72601;SDS011;60644;55.858;37.390;2022-08-01T12:22:38;5.60;;;2.63;;
72601;SDS011;60644;55.858;37.390;2022-08-01T12:25:08;6.13;;;2.60;;
72601;SDS011;60644;55.858;37.390;2022-08-01T12:27:43;6.25;;;2.80;;
72601;SDS011;60644;55.858;37.390;2022-08-01T12:30:14;7.95;;;2.60;;
72601;SDS011;60644;55.858;37.390;2022-08-01T12:32:43;9.10;;;2.70;;
72601;SDS011;60644;55.858;37.390;2022-08-01T12:35:14;6.88;;;2.40;;
72601;SDS011;60644;55.858;37.390;2022-08-01T12:37:44;8.00;;;3.08;;
72601;SDS011;60644;55.858;37.390;2022-08-01T12:40:19;7.68;;;2.75;;
72601;SDS011;60644;55.858;37.390;2022-08-01T12:42:52;5.45;;;2.47;;
72601;SDS011;60644;55.858;37.390;2022-08-01T12:45:26;6.47;;;2.70;;
72601;SDS011;60644;55.858;37.390;2022-08-01T12:47:56;5.20;;;2.97;;
72601;SDS011;60644;55.858;37.390;2022-08-01T12:50:25;7.50;;;2.80;;
72601;SDS011;60644;55.858;37.390;2022-08-01T12:52:53;5.20;;;2.25;;
72601;SDS011;60644;55.858;37.390;2022-08-01T12:55:20;5.38;;;2.63;;
72601;SDS011;60644;55.858;37.390;2022-08-01T12:57:48;6.27;;;2.40;;
72601;SDS011;60644;55.858;37.390;2022-08-01T13:00:20;7.20;;;2.80;;
72601;SDS011;60644;55.858;37.390;2022-08-01T13:03:01;8.70;;;3.30;;
72601;SDS011;60644;55.858;37.390;2022-08-01T13:05:40;6.80;;;2.95;;
72601;SDS011;60644;55.858;37.390;2022-08-01T13:08:21;6.75;;;2.83;;
72601;SDS011;60644;55.858;37.390;2022-08-01T13:11:01;7.60;;;2.60;;
72601;SDS011;60644;55.858;37.390;2022-08-01T13:13:40;6.15;;;2.97;;
72601;SDS011;60644;55.858;37.390;2022-08-01T13:16:08;10.40;;;2.90;;
72601;SDS011;60644;55.858;37.390;2022-08-01T13:18:35;6.65;;;3.00;;
72601;SDS011;60644;55.858;37.390;2022-08-01T13:24:02;5.83;;;3.00;;
72601;SDS011;60644;55.858;37.390;2022-08-01T13:29:14;6.93;;;3.70;;
72601;SDS011;60644;55.858;37.390;2022-08-01T13:31:41;7.43;;;2.70;;
72601;SDS011;60644;55.858;37.390;2022-08-01T13:34:08;7.75;;;3.10;;
72601;SDS011;60644;55.858;37.390;2022-08-01T13:36:36;7.97;;;3.13;;
72601;SDS011;60644;55.858;37.390;2022-08-01T13:39:04;6.05;;;2.90;;
72601;SDS011;60644;55.858;37.390;2022-08-01T13:41:49;6.30;;;2.92;;
72601;SDS011;60644;55.858;37.390;2022-08-01T13:44:15;8.27;;;3.47;;
72601;SDS011;60644;55.858;37.390;2022-08-01T13:46:42;7.70;;;3.00;;
72601;SDS011;60644;55.858;37.390;2022-08-01T13:49:10;8.37;;;3.20;;
72601;SDS011;60644;55.858;37.390;2022-08-01T13:51:37;8.18;;;2.90;;
72601;SDS011;60644;55.858;37.390;2022-08-01T13:54:03;6.82;;;2.70;;
72601;SDS011;60644;55.858;37.390;2022-08-01T13:56:30;7.78;;;3.03;;
72601;SDS011;60644;55.858;37.390;2022-08-01T13:58:56;10.55;;;3.63;;
72601;SDS011;60644;55.858;37.390;2022-08-01T14:01:23;10.03;;;3.83;;
72601;SDS011;60644;55.858;37.390;2022-08-01T14:03:50;12.75;;;5.65;;
72601;SDS011;60644;55.858;37.390;2022-08-01T14:06:16;7.00;;;3.45;;
72601;SDS011;60644;55.858;37.390;2022-08-01T14:08:44;7.68;;;2.78;;
72601;SDS011;60644;55.858;37.390;2022-08-01T14:11:10;7.07;;;3.15;;
72601;SDS011;60644;55.858;37.390;2022-08-01T14:13:37;9.93;;;3.40;;
72601;SDS011;60644;55.858;37.390;2022-08-01T14:16:04;7.30;;;2.90;;
72601;SDS011;60644;55.858;37.390;2022-08-01T14:18:31;7.72;;;2.80;;
72601;SDS011;60644;55.858;37.390;2022-08-01T14:20:57;6.95;;;2.88;;
72601;SDS011;60644;55.858;37.390;2022-08-01T14:23:23;5.78;;;2.30;;
72601;SDS011;60644;55.858;37.390;2022-08-01T14:25:49;7.87;;;2.50;;
72601;SDS011;60644;55.858;37.390;2022-08-01T14:28:15;6.45;;;2.47;;
72601;SDS011;60644;55.858;37.390;2022-08-01T14:30:41;5.70;;;2.20;;
72601;SDS011;60644;55.858;37.390;2022-08-01T14:33:08;7.43;;;2.28;;
72601;SDS011;60644;55.858;37.390;2022-08-01T14:35:34;4.73;;;2.30;;
72601;SDS011;60644;55.858;37.390;2022-08-01T14:38:00;5.03;;;2.50;;
72601;SDS011;60644;55.858;37.390;2022-08-01T14:40:26;6.45;;;2.20;;
72601;SDS011;60644;55.858;37.390;2022-08-01T14:42:52;7.95;;;2.80;;
72601;SDS011;60644;55.858;37.390;2022-08-01T14:45:18;6.50;;;2.50;;
72601;SDS011;60644;55.858;37.390;2022-08-01T14:47:45;7.63;;;2.50;;
72601;SDS011;60644;55.858;37.390;2022-08-01T14:50:12;8.30;;;2.53;;
72601;SDS011;60644;55.858;37.390;2022-08-01T14:52:40;6.15;;;2.42;;
72601;SDS011;60644;55.858;37.390;2022-08-01T14:55:08;7.78;;;2.33;;
72601;SDS011;60644;55.858;37.390;2022-08-01T14:57:36;8.13;;;3.10;;
72601;SDS011;60644;55.858;37.390;2022-08-01T15:00:04;8.02;;;2.97;;
72601;SDS011;60644;55.858;37.390;2022-08-01T15:02:33;6.50;;;2.80;;
72601;SDS011;60644;55.858;37.390;2022-08-01T15:04:59;6.50;;;2.60;;
72601;SDS011;60644;55.858;37.390;2022-08-01T15:07:24;6.63;;;2.50;;
72601;SDS011;60644;55.858;37.390;2022-08-01T15:09:50;7.87;;;3.23;;
72601;SDS011;60644;55.858;37.390;2022-08-01T15:12:16;9.40;;;3.13;;
72601;SDS011;60644;55.858;37.390;2022-08-01T15:14:42;7.28;;;2.90;;
72601;SDS011;60644;55.858;37.390;2022-08-01T15:17:15;6.10;;;2.70;;
72601;SDS011;60644;55.858;37.390;2022-08-01T15:19:41;35.35;;;5.60;;
72601;SDS011;60644;55.858;37.390;2022-08-01T15:22:07;26.20;;;4.30;;
72601;SDS011;60644;55.858;37.390;2022-08-01T15:24:33;7.55;;;2.80;;
72601;SDS011;60644;55.858;37.390;2022-08-01T15:26:58;8.23;;;2.70;;
72601;SDS011;60644;55.858;37.390;2022-08-01T15:29:24;9.02;;;2.78;;
72601;SDS011;60644;55.858;37.390;2022-08-01T15:31:51;8.48;;;2.83;;
72601;SDS011;60644;55.858;37.390;2022-08-01T15:34:17;7.40;;;2.65;;
72601;SDS011;60644;55.858;37.390;2022-08-01T15:36:43;48.23;;;6.63;;